createdAt,value
2023-05-28T00:03:40.341Z,10.31
2023-05-28T00:08:39.385Z,10.24
2023-05-28T00:13:39.287Z,10.17
2023-05-28T00:18:36.754Z,10.09
2023-05-28T00:23:36.934Z,10.02
2023-05-28T00:28:36.353Z,9.93
2023-05-28T00:33:37.376Z,9.85
2023-05-28T00:38:33.878Z,9.78
2023-05-28T00:43:33.890Z,9.68
2023-05-28T00:48:33.160Z,9.6
2023-05-28T00:53:33.019Z,9.51
2023-05-28T00:58:30.451Z,9.43
2023-05-28T01:04:51.625Z,9.35
2023-05-28T01:09:51.471Z,9.26
2023-05-28T01:14:50.783Z,9.2
2023-05-28T01:19:50.319Z,9.1
2023-05-28T01:24:50.335Z,9.03
2023-05-28T01:29:50.231Z,8.97
2023-05-28T01:34:50.991Z,8.93
2023-05-28T01:39:47.562Z,8.87
2023-05-28T01:44:47.468Z,8.84
2023-05-28T01:49:46.610Z,8.8
2023-05-28T01:54:46.417Z,8.74
2023-05-28T01:59:15.729Z,8.7
2023-05-28T02:04:15.782Z,8.68
2023-05-28T02:09:15.160Z,8.66
2023-05-28T02:14:16.186Z,8.63
2023-05-28T02:19:12.835Z,8.62
2023-05-28T02:24:12.734Z,8.6
2023-05-28T02:29:12.072Z,8.6
2023-05-28T02:34:11.836Z,8.75
2023-05-28T02:39:09.231Z,8.82
2023-05-28T02:44:09.217Z,8.81
2023-05-28T02:49:08.395Z,8.82
2023-05-28T02:54:08.035Z,8.83
2023-05-28T02:59:05.859Z,8.8
2023-05-28T03:04:06.347Z,8.77
2023-05-28T03:09:06.114Z,8.7
2023-05-28T03:14:06.600Z,8.6
2023-05-28T03:19:03.922Z,8.53
2023-05-28T03:24:03.694Z,8.43
2023-05-28T03:29:05.124Z,8.32
2023-05-28T03:33:51.467Z,8.25
2023-05-28T03:38:50.905Z,8.18
2023-05-28T03:43:50.550Z,8.12
2023-05-28T03:48:49.938Z,8.07
2023-05-28T03:53:49.766Z,8.03
2023-05-28T03:58:49.746Z,8.01
2023-05-28T04:03:49.343Z,8.04
2023-05-28T04:08:50.398Z,8.08
2023-05-28T04:13:46.705Z,8.12
2023-05-28T04:18:46.696Z,8.16
2023-05-28T04:23:46.042Z,8.22
2023-05-28T04:28:45.898Z,8.3
2023-05-28T04:33:43.343Z,8.39
2023-05-28T04:38:43.119Z,8.54
2023-05-28T04:43:42.245Z,8.8
2023-05-28T04:48:41.951Z,9.09
2023-05-28T04:53:41.241Z,9.41
2023-05-28T04:58:40.984Z,9.68
2023-05-28T05:03:41.041Z,9.97
2023-05-28T05:08:40.511Z,10.3
2023-05-28T05:13:39.217Z,10.59
2023-05-28T05:18:39.026Z,10.82
2023-05-28T05:23:39.327Z,11.06
2023-05-28T05:28:39.122Z,11.29
2023-05-28T05:33:38.584Z,11.55
2023-05-28T05:38:38.415Z,11.88
2023-05-28T05:43:38.218Z,12.2
2023-05-28T05:48:37.885Z,12.47
2023-05-28T05:53:39.088Z,12.69
2023-05-28T05:58:27.773Z,12.88
2023-05-28T06:03:27.896Z,13.08
2023-05-28T06:08:27.620Z,13.23
2023-05-28T06:13:27.115Z,13.46
2023-05-28T06:18:24.863Z,13.68
2023-05-28T06:23:24.820Z,13.91
2023-05-28T06:28:24.073Z,14.13
2023-05-28T06:33:23.999Z,14.33
2023-05-28T06:38:23.268Z,14.43
2023-05-28T06:43:22.902Z,14.55
2023-05-28T06:48:22.964Z,14.68
2023-05-28T06:53:23.360Z,14.8
2023-05-28T06:58:21.020Z,15.09
2023-05-28T07:00:07.521Z,15.19
2023-05-28T07:04:42.301Z,15.62
2023-05-28T07:09:42.565Z,16.21
2023-05-28T07:14:42.002Z,16.71
2023-05-28T07:19:41.892Z,16.98
2023-05-28T07:24:42.245Z,17.34
2023-05-28T07:29:42.097Z,17.58
2023-05-28T07:39:40.050Z,18.11
2023-05-28T07:44:40.286Z,18.43
2023-05-28T07:49:39.745Z,18.68
2023-05-28T07:54:39.847Z,18.83
2023-05-28T07:59:05.025Z,18.99
2023-05-28T08:04:05.603Z,19.2
2023-05-28T08:09:05.826Z,19.33
2023-05-28T08:14:04.642Z,19.45
2023-05-28T08:19:04.960Z,19.64
2023-05-28T08:24:04.811Z,19.81
2023-05-28T08:29:03.188Z,20.26
2023-05-28T08:34:03.968Z,20.72
2023-05-28T08:39:04.117Z,20.82
2023-05-28T08:44:03.162Z,21.07
2023-05-28T08:49:03.873Z,21.39
2023-05-28T08:54:03.452Z,21.72
2023-05-28T08:58:53.571Z,21.57
2023-05-28T09:03:50.172Z,21.62
2023-05-28T09:08:50.091Z,21.84
2023-05-28T09:13:49.593Z,21.79
2023-05-28T09:18:49.640Z,21.73
2023-05-28T09:23:46.931Z,22.09
2023-05-28T09:28:46.654Z,22.65
2023-05-28T09:33:46.814Z,22.9
2023-05-28T09:38:46.517Z,23.12
2023-05-28T09:43:45.905Z,23.23
2023-05-28T09:48:45.775Z,23.34
2023-05-28T09:53:45.538Z,23.56
2023-05-28T09:58:44.560Z,23.65
2023-05-28T10:03:46.069Z,23.52
2023-05-28T10:08:43.046Z,23.93
2023-05-28T10:13:42.344Z,24.01
2023-05-28T10:18:42.189Z,24.01
2023-05-28T10:23:41.505Z,24.13
2023-05-28T10:28:41.033Z,24.38
2023-05-28T10:33:41.178Z,24.45
2023-05-28T10:38:40.949Z,24.7
2023-05-28T10:43:41.491Z,24.82
2023-05-28T10:48:38.024Z,25
2023-05-28T10:53:37.979Z,24.91
2023-05-28T10:58:37.250Z,24.8
2023-05-28T11:03:37.004Z,25.14
2023-05-28T11:08:34.474Z,25.22
2023-05-28T11:13:34.061Z,25.17
2023-05-28T11:18:34.332Z,25.33
2023-05-28T11:23:34.005Z,25.6
2023-05-28T11:28:33.240Z,25.69
2023-05-28T11:33:33.046Z,25.6
2023-05-28T11:38:32.998Z,25.35
2023-05-28T11:43:32.457Z,25.32
2023-05-28T11:48:30.522Z,25.43
2023-05-28T11:53:30.295Z,25.64
2023-05-28T11:58:29.085Z,25.66
2023-05-28T12:00:15.408Z,25.75
2023-05-28T12:09:50.214Z,25.85
2023-05-28T12:49:44.142Z,26.32
2023-05-28T12:54:43.776Z,26.44
2023-05-28T12:58:51.321Z,26.25
2023-05-28T13:03:50.915Z,26
2023-05-28T13:08:50.138Z,26.14
2023-05-28T13:13:49.226Z,26.28
2023-05-28T13:18:49.433Z,26.58
2023-05-28T13:23:49.736Z,26.41
2023-05-28T13:28:47.466Z,26.26
2023-05-28T13:33:46.732Z,26.35
2023-05-28T13:38:46.363Z,26.35
2023-05-28T13:43:45.868Z,26.17
2023-05-28T13:48:45.144Z,25.99
2023-05-28T13:53:44.705Z,26.01
2023-05-28T13:58:44.800Z,25.86
2023-05-28T14:03:44.607Z,25.86
2023-05-28T14:08:45.462Z,25.85
2023-05-28T14:13:41.780Z,25.83
2023-05-28T14:18:41.752Z,25.85
2023-05-28T14:23:41.008Z,25.92
2023-05-28T14:28:40.779Z,25.88
2023-05-28T14:33:38.137Z,25.9
2023-05-28T14:38:37.875Z,25.78
2023-05-28T14:43:37.900Z,25.77
2023-05-28T14:48:37.700Z,25.82
2023-05-28T14:53:36.997Z,26.18
2023-05-28T14:58:36.614Z,26.32
2023-05-28T15:00:28.392Z,26.26
2023-05-28T15:05:08.925Z,26.1
2023-05-28T15:10:05.911Z,25.92
2023-05-28T15:15:05.715Z,26
2023-05-28T15:20:07.083Z,25.98
2023-05-28T15:25:03.907Z,25.97
2023-05-28T15:30:03.294Z,25.85
2023-05-28T15:35:03.228Z,25.77
2023-05-28T15:44:50.147Z,25.54
2023-05-28T15:49:50.417Z,25.56
2023-05-28T15:59:07.119Z,25.48
2023-05-28T16:04:07.036Z,25.59
2023-05-28T16:09:07.312Z,25.56
2023-05-28T16:14:07.994Z,25.32
2023-05-28T16:19:05.001Z,25.26
2023-05-28T16:24:04.778Z,25.18
2023-05-28T16:29:06.319Z,25.1
2023-05-28T16:34:03.340Z,25.25
2023-05-28T16:39:03.589Z,25.26
2023-05-28T16:44:04.964Z,25.17
2023-05-28T16:48:51.626Z,25.11
2023-05-28T16:53:51.874Z,24.94
2023-05-28T16:58:51.082Z,24.82
2023-05-28T17:03:52.139Z,24.79
2023-05-28T17:08:48.653Z,24.75
2023-05-28T17:13:48.612Z,24.78
2023-05-28T17:18:47.497Z,24.77
2023-05-28T17:28:46.675Z,24.44
2023-05-28T17:33:46.538Z,24.31
2023-05-28T17:38:47.339Z,24.24
2023-05-28T17:43:44.637Z,24.06
2023-05-28T17:48:44.370Z,23.87
2023-05-28T17:53:48.219Z,23.71
2023-05-28T17:58:43.351Z,23.5
2023-05-28T18:03:40.785Z,23.44
2023-05-28T18:08:40.408Z,23.41
2023-05-28T18:13:40.448Z,23.29
2023-05-28T18:18:41.686Z,23.04
2023-05-28T18:23:38.042Z,22.74
2023-05-28T18:28:37.939Z,22.51
2023-05-28T18:33:37.307Z,22.34
2023-05-28T18:38:37.152Z,22.14
2023-05-28T18:43:34.652Z,21.93
2023-05-28T18:48:34.268Z,21.71
2023-05-28T18:53:33.452Z,21.52
2023-05-28T18:58:33.114Z,21.32
2023-05-28T19:05:10.431Z,21.03
2023-05-28T19:10:04.835Z,20.82
2023-05-28T19:15:06.300Z,20.65
2023-05-28T19:20:03.155Z,20.52
2023-05-28T19:24:52.389Z,20.5
2023-05-28T19:29:51.993Z,20.4
2023-05-28T19:34:51.206Z,20.26
2023-05-28T19:39:50.606Z,20.1
2023-05-28T19:44:50.836Z,19.94
2023-05-28T19:49:50.579Z,19.73
2023-05-28T19:54:49.150Z,19.49
2023-05-28T19:59:13.537Z,19.18
2023-05-28T20:04:12.836Z,18.92
2023-05-28T20:09:12.132Z,18.59
2023-05-28T20:14:11.583Z,18.24
2023-05-28T20:19:11.213Z,17.87
2023-05-28T20:24:11.312Z,17.51
2023-05-28T20:29:10.689Z,17.17
2023-05-28T20:34:11.592Z,16.91
2023-05-28T20:39:08.147Z,16.59
2023-05-28T20:44:07.895Z,16.27
2023-05-28T20:49:15.604Z,15.99
2023-05-28T20:54:07.048Z,15.74
2023-05-28T20:59:04.717Z,15.49
2023-05-28T21:04:03.179Z,15.28
2023-05-28T21:09:03.381Z,15.06
2023-05-28T21:13:51.540Z,14.88
2023-05-28T21:18:51.367Z,14.72
2023-05-28T21:23:51.178Z,14.53
2023-05-28T21:28:50.722Z,14.37
2023-05-28T21:33:49.462Z,14.2
2023-05-28T21:38:49.334Z,14.06
2023-05-28T21:43:48.692Z,13.92
2023-05-28T21:48:48.412Z,13.79
2023-05-28T21:53:45.883Z,13.65
2023-05-28T21:58:45.301Z,13.49
2023-05-28T22:03:45.548Z,13.36
2023-05-28T22:08:44.958Z,13.24
2023-05-28T22:13:44.180Z,13.14
2023-05-28T22:18:43.513Z,13.05
2023-05-28T22:23:43.704Z,12.96
2023-05-28T22:28:51.132Z,12.85
2023-05-28T22:33:49.438Z,12.83
2023-05-28T22:38:40.674Z,12.72
2023-05-28T22:43:42.579Z,12.64
2023-05-28T22:48:39.929Z,12.56
2023-05-28T22:53:39.630Z,12.48
2023-05-28T22:58:37.044Z,12.39
2023-05-28T23:03:37.100Z,12.28
2023-05-28T23:08:36.682Z,12.17
2023-05-28T23:13:37.717Z,12.04
2023-05-28T23:18:34.091Z,11.93
2023-05-28T23:23:34.075Z,11.83
2023-05-28T23:28:33.553Z,11.75
2023-05-28T23:33:33.254Z,11.68
2023-05-28T23:38:30.756Z,11.61
2023-05-28T23:43:30.483Z,11.51
2023-05-28T23:48:30.497Z,11.42
2023-05-28T23:53:30.154Z,11.34
2023-05-28T23:58:34.589Z,11.29
